sensor_id;sensor_type;location;lat;lon;timestamp;temperature;humidity
10453;DHT22;5274;51.992;8.518;2023-02-01T00:00:08;2.80;1.00
10453;DHT22;5274;51.992;8.518;2023-02-01T00:02:33;2.80;1.00
10453;DHT22;5274;51.992;8.518;2023-02-01T00:05:01;2.80;1.00
10453;DHT22;5274;51.992;8.518;2023-02-01T00:07:26;2.80;1.00
10453;DHT22;5274;51.992;8.518;2023-02-01T00:09:52;2.80;99.90
10453;DHT22;5274;51.992;8.518;2023-02-01T00:12:17;2.80;99.90
10453;DHT22;5274;51.992;8.518;2023-02-01T00:14:43;2.80;99.90
10453;DHT22;5274;51.992;8.518;2023-02-01T00:17:08;2.80;1.00
10453;DHT22;5274;51.992;8.518;2023-02-01T00:19:34;2.70;99.90
10453;DHT22;5274;51.992;8.518;2023-02-01T00:22:00;2.80;34.10
10453;DHT22;5274;51.992;8.518;2023-02-01T00:24:25;2.80;99.90
10453;DHT22;5274;51.992;8.518;2023-02-01T00:26:51;2.80;99.90
10453;DHT22;5274;51.992;8.518;2023-02-01T00:29:18;2.80;81.80
10453;DHT22;5274;51.992;8.518;2023-02-01T00:31:45;2.80;52.20
10453;DHT22;5274;51.992;8.518;2023-02-01T00:34:15;2.80;1.00
10453;DHT22;5274;51.992;8.518;2023-02-01T00:36:42;2.80;1.00
10453;DHT22;5274;51.992;8.518;2023-02-01T00:39:08;2.90;1.00
10453;DHT22;5274;51.992;8.518;2023-02-01T00:41:34;2.90;97.40
10453;DHT22;5274;51.992;8.518;2023-02-01T00:43:59;3.00;99.90
10453;DHT22;5274;51.992;8.518;2023-02-01T00:46:25;2.90;15.00
10453;DHT22;5274;51.992;8.518;2023-02-01T00:48:51;2.90;1.00
10453;DHT22;5274;51.992;8.518;2023-02-01T00:51:19;2.90;17.90
10453;DHT22;5274;51.992;8.518;2023-02-01T00:53:45;3.00;1.00
10453;DHT22;5274;51.992;8.518;2023-02-01T00:56:11;2.90;48.50
10453;DHT22;5274;51.992;8.518;2023-02-01T00:58:37;2.90;99.90
10453;DHT22;5274;51.992;8.518;2023-02-01T01:01:04;2.90;50.80
10453;DHT22;5274;51.992;8.518;2023-02-01T01:03:31;2.90;99.90
10453;DHT22;5274;51.992;8.518;2023-02-01T01:06:00;3.00;99.90
10453;DHT22;5274;51.992;8.518;2023-02-01T01:08:25;3.00;1.80
10453;DHT22;5274;51.992;8.518;2023-02-01T01:10:51;2.90;1.00
10453;DHT22;5274;51.992;8.518;2023-02-01T01:13:16;3.00;1.00
10453;DHT22;5274;51.992;8.518;2023-02-01T01:15:42;3.00;1.00
10453;DHT22;5274;51.992;8.518;2023-02-01T01:18:08;3.00;1.00
10453;DHT22;5274;51.992;8.518;2023-02-01T01:20:35;3.00;1.00
10453;DHT22;5274;51.992;8.518;2023-02-01T01:23:01;3.10;1.00
10453;DHT22;5274;51.992;8.518;2023-02-01T01:25:27;3.10;1.00
10453;DHT22;5274;51.992;8.518;2023-02-01T01:27:52;3.10;1.00
10453;DHT22;5274;51.992;8.518;2023-02-01T01:30:18;3.10;1.00
10453;DHT22;5274;51.992;8.518;2023-02-01T01:32:43;3.20;1.00
10453;DHT22;5274;51.992;8.518;2023-02-01T01:35:10;3.20;1.00
10453;DHT22;5274;51.992;8.518;2023-02-01T01:37:36;3.20;1.00
10453;DHT22;5274;51.992;8.518;2023-02-01T01:40:05;3.20;1.00
10453;DHT22;5274;51.992;8.518;2023-02-01T01:42:37;3.20;1.00
10453;DHT22;5274;51.992;8.518;2023-02-01T01:47:56;3.20;1.00
10453;DHT22;5274;51.992;8.518;2023-02-01T01:50:46;3.20;1.00
10453;DHT22;5274;51.992;8.518;2023-02-01T01:53:18;3.30;1.00
10453;DHT22;5274;51.992;8.518;2023-02-01T01:55:44;3.50;1.00
10453;DHT22;5274;51.992;8.518;2023-02-01T01:58:17;3.40;1.00
10453;DHT22;5274;51.992;8.518;2023-02-01T02:00:45;3.50;1.00
10453;DHT22;5274;51.992;8.518;2023-02-01T02:03:30;3.50;1.00
10453;DHT22;5274;51.992;8.518;2023-02-01T02:06:00;3.50;1.00
10453;DHT22;5274;51.992;8.518;2023-02-01T02:08:27;3.50;99.90
10453;DHT22;5274;51.992;8.518;2023-02-01T02:10:53;3.50;99.90
10453;DHT22;5274;51.992;8.518;2023-02-01T02:13:26;3.50;99.90
10453;DHT22;5274;51.992;8.518;2023-02-01T02:24:31;3.60;1.00
10453;DHT22;5274;51.992;8.518;2023-02-01T02:30:22;3.60;99.90
10453;DHT22;5274;51.992;8.518;2023-02-01T02:33:15;3.60;99.90
10453;DHT22;5274;51.992;8.518;2023-02-01T02:41:36;3.60;99.90
10453;DHT22;5274;51.992;8.518;2023-02-01T02:47:43;3.70;18.60
10453;DHT22;5274;51.992;8.518;2023-02-01T02:53:23;3.70;99.90
10453;DHT22;5274;51.992;8.518;2023-02-01T02:56:09;3.70;99.90
10453;DHT22;5274;51.992;8.518;2023-02-01T02:58:55;3.70;99.90
10453;DHT22;5274;51.992;8.518;2023-02-01T03:01:41;3.70;99.90
10453;DHT22;5274;51.992;8.518;2023-02-01T03:04:25;3.70;1.00
10453;DHT22;5274;51.992;8.518;2023-02-01T03:06:52;3.80;1.00
10453;DHT22;5274;51.992;8.518;2023-02-01T03:09:26;3.80;99.90
10453;DHT22;5274;51.992;8.518;2023-02-01T03:11:57;3.80;1.00
10453;DHT22;5274;51.992;8.518;2023-02-01T03:14:47;3.90;99.90
10453;DHT22;5274;51.992;8.518;2023-02-01T03:17:17;3.90;99.90
10453;DHT22;5274;51.992;8.518;2023-02-01T03:19:46;3.90;66.40
10453;DHT22;5274;51.992;8.518;2023-02-01T03:22:19;3.90;1.00
10453;DHT22;5274;51.992;8.518;2023-02-01T03:25:03;3.90;1.00
10453;DHT22;5274;51.992;8.518;2023-02-01T03:27:35;3.90;99.90
10453;DHT22;5274;51.992;8.518;2023-02-01T03:30:11;3.90;99.90
10453;DHT22;5274;51.992;8.518;2023-02-01T03:32:44;3.90;1.00
10453;DHT22;5274;51.992;8.518;2023-02-01T03:41:00;4.00;99.90
10453;DHT22;5274;51.992;8.518;2023-02-01T03:43:30;4.00;1.00
10453;DHT22;5274;51.992;8.518;2023-02-01T03:46:04;4.00;99.90
10453;DHT22;5274;51.992;8.518;2023-02-01T03:48:32;4.00;99.90
10453;DHT22;5274;51.992;8.518;2023-02-01T03:51:00;4.10;1.00
10453;DHT22;5274;51.992;8.518;2023-02-01T03:53:28;4.00;99.90
10453;DHT22;5274;51.992;8.518;2023-02-01T03:55:54;4.00;99.90
10453;DHT22;5274;51.992;8.518;2023-02-01T03:58:22;4.10;99.90
10453;DHT22;5274;51.992;8.518;2023-02-01T04:00:56;4.10;1.00
10453;DHT22;5274;51.992;8.518;2023-02-01T04:03:23;4.10;1.00
10453;DHT22;5274;51.992;8.518;2023-02-01T04:05:51;4.10;1.00
10453;DHT22;5274;51.992;8.518;2023-02-01T04:08:19;4.10;1.00
10453;DHT22;5274;51.992;8.518;2023-02-01T04:10:44;4.10;1.00
10453;DHT22;5274;51.992;8.518;2023-02-01T04:13:10;4.10;1.00
10453;DHT22;5274;51.992;8.518;2023-02-01T04:15:36;4.10;99.90
10453;DHT22;5274;51.992;8.518;2023-02-01T04:18:01;4.10;1.00
10453;DHT22;5274;51.992;8.518;2023-02-01T04:20:27;4.10;1.00
10453;DHT22;5274;51.992;8.518;2023-02-01T04:22:52;4.10;1.00
10453;DHT22;5274;51.992;8.518;2023-02-01T04:25:18;4.20;99.90
10453;DHT22;5274;51.992;8.518;2023-02-01T04:27:44;4.10;1.00
10453;DHT22;5274;51.992;8.518;2023-02-01T04:30:10;4.10;99.90
10453;DHT22;5274;51.992;8.518;2023-02-01T04:32:37;4.20;99.90
10453;DHT22;5274;51.992;8.518;2023-02-01T04:35:03;4.20;1.00
10453;DHT22;5274;51.992;8.518;2023-02-01T04:37:28;4.20;99.90
10453;DHT22;5274;51.992;8.518;2023-02-01T04:39:54;4.20;99.90
10453;DHT22;5274;51.992;8.518;2023-02-01T04:42:20;4.20;1.00
10453;DHT22;5274;51.992;8.518;2023-02-01T04:44:45;4.00;1.00
10453;DHT22;5274;51.992;8.518;2023-02-01T04:47:11;3.80;99.90
10453;DHT22;5274;51.992;8.518;2023-02-01T04:49:36;3.60;1.00
10453;DHT22;5274;51.992;8.518;2023-02-01T04:52:02;3.50;1.00
10453;DHT22;5274;51.992;8.518;2023-02-01T04:54:27;3.60;1.00
10453;DHT22;5274;51.992;8.518;2023-02-01T04:56:53;3.60;1.00
10453;DHT22;5274;51.992;8.518;2023-02-01T04:59:18;3.60;1.00
10453;DHT22;5274;51.992;8.518;2023-02-01T05:01:44;3.60;1.00
10453;DHT22;5274;51.992;8.518;2023-02-01T05:04:09;3.60;1.00
10453;DHT22;5274;51.992;8.518;2023-02-01T05:06:35;3.60;1.00
10453;DHT22;5274;51.992;8.518;2023-02-01T05:09:00;3.50;1.00
10453;DHT22;5274;51.992;8.518;2023-02-01T05:11:26;3.40;1.00
10453;DHT22;5274;51.992;8.518;2023-02-01T05:14:10;3.40;22.20
10453;DHT22;5274;51.992;8.518;2023-02-01T05:16:36;3.40;50.20
10453;DHT22;5274;51.992;8.518;2023-02-01T05:19:01;3.40;85.50
10453;DHT22;5274;51.992;8.518;2023-02-01T05:21:27;3.30;87.80
10453;DHT22;5274;51.992;8.518;2023-02-01T05:23:52;3.30;99.90
10453;DHT22;5274;51.992;8.518;2023-02-01T05:26:39;3.30;99.90
10453;DHT22;5274;51.992;8.518;2023-02-01T05:29:06;3.30;99.90
10453;DHT22;5274;51.992;8.518;2023-02-01T05:31:32;3.30;99.90
10453;DHT22;5274;51.992;8.518;2023-02-01T05:33:57;3.30;99.90
10453;DHT22;5274;51.992;8.518;2023-02-01T05:36:23;3.30;99.90
10453;DHT22;5274;51.992;8.518;2023-02-01T05:38:48;3.30;99.90
10453;DHT22;5274;51.992;8.518;2023-02-01T05:41:14;3.30;99.90
10453;DHT22;5274;51.992;8.518;2023-02-01T05:43:39;3.30;91.10
10453;DHT22;5274;51.992;8.518;2023-02-01T05:46:05;3.30;91.30
10453;DHT22;5274;51.992;8.518;2023-02-01T05:48:30;3.40;22.20
10453;DHT22;5274;51.992;8.518;2023-02-01T05:50:56;3.40;2.30
10453;DHT22;5274;51.992;8.518;2023-02-01T05:53:22;3.40;1.00
10453;DHT22;5274;51.992;8.518;2023-02-01T05:55:47;3.50;1.00
10453;DHT22;5274;51.992;8.518;2023-02-01T05:58:13;3.50;1.00
10453;DHT22;5274;51.992;8.518;2023-02-01T06:00:39;3.60;1.00
10453;DHT22;5274;51.992;8.518;2023-02-01T06:03:05;3.60;1.00
10453;DHT22;5274;51.992;8.518;2023-02-01T06:05:30;3.60;1.00
10453;DHT22;5274;51.992;8.518;2023-02-01T06:07:56;3.70;1.00
10453;DHT22;5274;51.992;8.518;2023-02-01T06:10:22;3.60;1.00
10453;DHT22;5274;51.992;8.518;2023-02-01T06:12:47;3.70;1.00
10453;DHT22;5274;51.992;8.518;2023-02-01T06:15:14;3.80;99.90
10453;DHT22;5274;51.992;8.518;2023-02-01T06:17:44;3.80;99.90
10453;DHT22;5274;51.992;8.518;2023-02-01T06:20:12;3.90;99.90
10453;DHT22;5274;51.992;8.518;2023-02-01T06:22:38;3.90;94.80
10453;DHT22;5274;51.992;8.518;2023-02-01T06:25:05;3.90;1.00
10453;DHT22;5274;51.992;8.518;2023-02-01T06:27:32;3.90;39.10
10453;DHT22;5274;51.992;8.518;2023-02-01T06:29:57;4.00;1.00
10453;DHT22;5274;51.992;8.518;2023-02-01T06:32:23;4.00;1.00
10453;DHT22;5274;51.992;8.518;2023-02-01T06:34:49;4.00;1.00
10453;DHT22;5274;51.992;8.518;2023-02-01T06:37:14;3.90;1.00
10453;DHT22;5274;51.992;8.518;2023-02-01T06:39:40;4.00;1.00
10453;DHT22;5274;51.992;8.518;2023-02-01T06:42:05;4.00;1.00
10453;DHT22;5274;51.992;8.518;2023-02-01T06:44:31;4.00;1.00
10453;DHT22;5274;51.992;8.518;2023-02-01T06:46:56;4.10;99.90
10453;DHT22;5274;51.992;8.518;2023-02-01T06:49:22;4.10;1.00
10453;DHT22;5274;51.992;8.518;2023-02-01T06:51:48;4.10;1.00
10453;DHT22;5274;51.992;8.518;2023-02-01T06:54:13;4.10;99.90
10453;DHT22;5274;51.992;8.518;2023-02-01T06:56:39;4.10;99.90
10453;DHT22;5274;51.992;8.518;2023-02-01T06:59:06;4.10;99.90
10453;DHT22;5274;51.992;8.518;2023-02-01T07:01:31;4.10;99.90
10453;DHT22;5274;51.992;8.518;2023-02-01T07:03:57;4.10;99.90
10453;DHT22;5274;51.992;8.518;2023-02-01T07:06:22;4.10;1.00
10453;DHT22;5274;51.992;8.518;2023-02-01T07:08:48;4.10;99.90
10453;DHT22;5274;51.992;8.518;2023-02-01T07:11:15;4.20;99.90
10453;DHT22;5274;51.992;8.518;2023-02-01T07:13:41;4.20;99.90
10453;DHT22;5274;51.992;8.518;2023-02-01T07:16:10;4.20;99.90
10453;DHT22;5274;51.992;8.518;2023-02-01T07:18:36;4.20;99.90
10453;DHT22;5274;51.992;8.518;2023-02-01T07:21:02;4.20;99.90
10453;DHT22;5274;51.992;8.518;2023-02-01T07:23:28;4.20;1.00
10453;DHT22;5274;51.992;8.518;2023-02-01T07:25:55;4.20;99.90
10453;DHT22;5274;51.992;8.518;2023-02-01T07:28:21;4.20;99.90
10453;DHT22;5274;51.992;8.518;2023-02-01T07:30:47;4.20;99.90
10453;DHT22;5274;51.992;8.518;2023-02-01T07:33:20;4.20;99.90
10453;DHT22;5274;51.992;8.518;2023-02-01T07:35:46;4.30;99.90
10453;DHT22;5274;51.992;8.518;2023-02-01T07:38:12;4.20;99.90
10453;DHT22;5274;51.992;8.518;2023-02-01T07:40:38;4.30;1.00
10453;DHT22;5274;51.992;8.518;2023-02-01T07:43:03;4.30;99.90
10453;DHT22;5274;51.992;8.518;2023-02-01T07:45:31;4.30;99.90
10453;DHT22;5274;51.992;8.518;2023-02-01T07:47:57;4.30;1.00
10453;DHT22;5274;51.992;8.518;2023-02-01T07:50:22;4.30;1.00
10453;DHT22;5274;51.992;8.518;2023-02-01T07:52:48;4.30;99.90
10453;DHT22;5274;51.992;8.518;2023-02-01T07:55:13;4.30;99.90
10453;DHT22;5274;51.992;8.518;2023-02-01T07:57:39;4.30;1.00
10453;DHT22;5274;51.992;8.518;2023-02-01T08:00:04;4.00;99.90
10453;DHT22;5274;51.992;8.518;2023-02-01T08:02:49;3.90;1.00
10453;DHT22;5274;51.992;8.518;2023-02-01T08:05:14;3.80;1.00
10453;DHT22;5274;51.992;8.518;2023-02-01T08:07:40;3.90;1.00
10453;DHT22;5274;51.992;8.518;2023-02-01T08:10:06;3.90;1.00
10453;DHT22;5274;51.992;8.518;2023-02-01T08:12:36;4.00;1.00
10453;DHT22;5274;51.992;8.518;2023-02-01T08:15:02;4.00;1.00
10453;DHT22;5274;51.992;8.518;2023-02-01T08:17:27;4.00;99.90
10453;DHT22;5274;51.992;8.518;2023-02-01T08:19:53;4.10;99.90
10453;DHT22;5274;51.992;8.518;2023-02-01T08:22:19;4.10;99.90
10453;DHT22;5274;51.992;8.518;2023-02-01T08:24:47;4.20;1.00
10453;DHT22;5274;51.992;8.518;2023-02-01T08:27:13;4.30;1.00
10453;DHT22;5274;51.992;8.518;2023-02-01T08:29:38;4.30;1.00
10453;DHT22;5274;51.992;8.518;2023-02-01T08:32:04;4.30;1.00
10453;DHT22;5274;51.992;8.518;2023-02-01T08:34:30;4.40;1.00
10453;DHT22;5274;51.992;8.518;2023-02-01T08:36:55;4.40;99.90
10453;DHT22;5274;51.992;8.518;2023-02-01T08:39:25;4.40;1.00
10453;DHT22;5274;51.992;8.518;2023-02-01T08:41:51;4.40;94.30
10453;DHT22;5274;51.992;8.518;2023-02-01T08:44:35;4.40;1.00
10453;DHT22;5274;51.992;8.518;2023-02-01T08:47:02;4.40;1.00
10453;DHT22;5274;51.992;8.518;2023-02-01T08:49:28;4.40;1.00
10453;DHT22;5274;51.992;8.518;2023-02-01T08:51:53;4.50;1.00
10453;DHT22;5274;51.992;8.518;2023-02-01T08:54:20;4.50;1.00
10453;DHT22;5274;51.992;8.518;2023-02-01T08:56:46;4.60;99.90
10453;DHT22;5274;51.992;8.518;2023-02-01T08:59:11;4.60;1.00
10453;DHT22;5274;51.992;8.518;2023-02-01T09:01:37;4.60;99.90
10453;DHT22;5274;51.992;8.518;2023-02-01T09:04:02;4.70;1.00
10453;DHT22;5274;51.992;8.518;2023-02-01T09:06:28;4.70;1.00
10453;DHT22;5274;51.992;8.518;2023-02-01T09:08:53;4.80;99.90
10453;DHT22;5274;51.992;8.518;2023-02-01T09:11:19;4.70;1.00
10453;DHT22;5274;51.992;8.518;2023-02-01T09:13:44;4.80;99.90
10453;DHT22;5274;51.992;8.518;2023-02-01T09:16:10;4.90;99.90
10453;DHT22;5274;51.992;8.518;2023-02-01T09:18:36;5.00;1.00
10453;DHT22;5274;51.992;8.518;2023-02-01T09:21:08;5.00;17.60
10453;DHT22;5274;51.992;8.518;2023-02-01T09:23:34;5.00;99.90
10453;DHT22;5274;51.992;8.518;2023-02-01T09:26:02;5.10;99.90
10453;DHT22;5274;51.992;8.518;2023-02-01T09:28:28;5.10;14.90
10453;DHT22;5274;51.992;8.518;2023-02-01T09:30:57;5.00;1.00
10453;DHT22;5274;51.992;8.518;2023-02-01T09:33:24;5.00;99.90
10453;DHT22;5274;51.992;8.518;2023-02-01T09:35:58;5.10;96.50
10453;DHT22;5274;51.992;8.518;2023-02-01T09:38:24;5.00;1.00
10453;DHT22;5274;51.992;8.518;2023-02-01T09:40:51;5.10;1.00
10453;DHT22;5274;51.992;8.518;2023-02-01T09:43:35;5.10;1.00
10453;DHT22;5274;51.992;8.518;2023-02-01T09:48:45;5.10;1.00
10453;DHT22;5274;51.992;8.518;2023-02-01T09:51:27;5.10;99.90
10453;DHT22;5274;51.992;8.518;2023-02-01T09:56:35;5.10;1.00
10453;DHT22;5274;51.992;8.518;2023-02-01T09:59:18;5.10;1.00
10453;DHT22;5274;51.992;8.518;2023-02-01T10:01:47;5.10;1.00
10453;DHT22;5274;51.992;8.518;2023-02-01T10:04:14;5.10;38.20
10453;DHT22;5274;51.992;8.518;2023-02-01T10:09:31;5.20;99.90
10453;DHT22;5274;51.992;8.518;2023-02-01T10:12:33;5.20;1.00
10453;DHT22;5274;51.992;8.518;2023-02-01T10:26:23;5.40;1.00
10453;DHT22;5274;51.992;8.518;2023-02-01T10:28:55;5.40;99.90
10453;DHT22;5274;51.992;8.518;2023-02-01T10:31:25;5.40;25.80
10453;DHT22;5274;51.992;8.518;2023-02-01T10:33:56;5.40;99.90
10453;DHT22;5274;51.992;8.518;2023-02-01T10:36:32;5.40;99.90
10453;DHT22;5274;51.992;8.518;2023-02-01T10:39:03;5.40;1.00
10453;DHT22;5274;51.992;8.518;2023-02-01T10:41:36;5.40;1.00
10453;DHT22;5274;51.992;8.518;2023-02-01T10:44:09;5.40;49.40
10453;DHT22;5274;51.992;8.518;2023-02-01T10:46:36;5.30;99.90
10453;DHT22;5274;51.992;8.518;2023-02-01T10:49:04;5.30;99.90
10453;DHT22;5274;51.992;8.518;2023-02-01T10:54:17;5.40;1.00
10453;DHT22;5274;51.992;8.518;2023-02-01T10:56:45;5.40;1.00
10453;DHT22;5274;51.992;8.518;2023-02-01T10:59:17;5.50;1.00
10453;DHT22;5274;51.992;8.518;2023-02-01T11:01:45;5.50;1.00
10453;DHT22;5274;51.992;8.518;2023-02-01T11:04:16;5.50;1.00
10453;DHT22;5274;51.992;8.518;2023-02-01T11:06:52;5.50;99.90
10453;DHT22;5274;51.992;8.518;2023-02-01T11:09:23;5.50;1.00
10453;DHT22;5274;51.992;8.518;2023-02-01T11:14:17;5.50;1.00
10453;DHT22;5274;51.992;8.518;2023-02-01T11:16:48;5.50;1.00
10453;DHT22;5274;51.992;8.518;2023-02-01T11:19:16;5.40;1.00
10453;DHT22;5274;51.992;8.518;2023-02-01T11:21:43;5.40;99.90
10453;DHT22;5274;51.992;8.518;2023-02-01T11:24:28;5.50;1.00
10453;DHT22;5274;51.992;8.518;2023-02-01T11:26:59;5.50;1.00
10453;DHT22;5274;51.992;8.518;2023-02-01T11:29:26;5.50;99.90
10453;DHT22;5274;51.992;8.518;2023-02-01T11:31:57;5.50;99.90
10453;DHT22;5274;51.992;8.518;2023-02-01T11:34:26;5.60;1.00
10453;DHT22;5274;51.992;8.518;2023-02-01T11:36:55;5.50;1.00
10453;DHT22;5274;51.992;8.518;2023-02-01T11:39:31;5.60;99.90
10453;DHT22;5274;51.992;8.518;2023-02-01T11:42:13;5.50;99.90
10453;DHT22;5274;51.992;8.518;2023-02-01T11:44:41;5.50;1.00
10453;DHT22;5274;51.992;8.518;2023-02-01T11:47:28;5.50;99.90
10453;DHT22;5274;51.992;8.518;2023-02-01T11:49:56;5.50;99.90
10453;DHT22;5274;51.992;8.518;2023-02-01T12:03:40;5.00;1.00
10453;DHT22;5274;51.992;8.518;2023-02-01T12:06:29;4.90;1.00
10453;DHT22;5274;51.992;8.518;2023-02-01T12:09:36;4.70;59.90
10453;DHT22;5274;51.992;8.518;2023-02-01T12:12:17;4.60;99.90
10453;DHT22;5274;51.992;8.518;2023-02-01T12:22:44;4.20;99.90
10453;DHT22;5274;51.992;8.518;2023-02-01T12:25:36;4.20;99.90
10453;DHT22;5274;51.992;8.518;2023-02-01T12:28:16;4.20;1.00
10453;DHT22;5274;51.992;8.518;2023-02-01T12:30:56;4.10;1.00
10453;DHT22;5274;51.992;8.518;2023-02-01T12:36:14;4.20;1.00
10453;DHT22;5274;51.992;8.518;2023-02-01T12:42:02;4.10;1.00
10453;DHT22;5274;51.992;8.518;2023-02-01T12:44:43;4.00;99.90
10453;DHT22;5274;51.992;8.518;2023-02-01T12:47:29;4.10;99.90
10453;DHT22;5274;51.992;8.518;2023-02-01T12:52:53;4.10;99.90
10453;DHT22;5274;51.992;8.518;2023-02-01T12:55:44;4.10;1.00
10453;DHT22;5274;51.992;8.518;2023-02-01T13:01:28;4.00;99.90
10453;DHT22;5274;51.992;8.518;2023-02-01T13:04:03;4.00;99.90
10453;DHT22;5274;51.992;8.518;2023-02-01T13:06:37;4.00;99.90
10453;DHT22;5274;51.992;8.518;2023-02-01T13:11:40;3.90;99.90
10453;DHT22;5274;51.992;8.518;2023-02-01T13:14:35;4.00;99.90
10453;DHT22;5274;51.992;8.518;2023-02-01T13:17:12;4.00;99.90
10453;DHT22;5274;51.992;8.518;2023-02-01T13:19:52;4.00;99.90
10453;DHT22;5274;51.992;8.518;2023-02-01T13:22:28;4.10;99.90
10453;DHT22;5274;51.992;8.518;2023-02-01T13:25:03;4.10;99.90
10453;DHT22;5274;51.992;8.518;2023-02-01T13:27:30;4.10;99.90
10453;DHT22;5274;51.992;8.518;2023-02-01T13:30:17;4.20;1.00
10453;DHT22;5274;51.992;8.518;2023-02-01T13:33:17;4.20;99.90
10453;DHT22;5274;51.992;8.518;2023-02-01T13:36:12;4.20;1.00
10453;DHT22;5274;51.992;8.518;2023-02-01T13:41:52;4.20;1.00
10453;DHT22;5274;51.992;8.518;2023-02-01T13:44:51;4.20;1.00
10453;DHT22;5274;51.992;8.518;2023-02-01T13:47:27;4.30;1.00
10453;DHT22;5274;51.992;8.518;2023-02-01T13:49:57;4.30;1.00
10453;DHT22;5274;51.992;8.518;2023-02-01T13:55:03;4.40;1.00
10453;DHT22;5274;51.992;8.518;2023-02-01T13:57:41;4.40;1.00
10453;DHT22;5274;51.992;8.518;2023-02-01T14:00:29;4.40;99.90
10453;DHT22;5274;51.992;8.518;2023-02-01T14:10:52;4.50;1.00
10453;DHT22;5274;51.992;8.518;2023-02-01T14:13:37;4.40;99.90
10453;DHT22;5274;51.992;8.518;2023-02-01T14:21:26;4.30;1.00
10453;DHT22;5274;51.992;8.518;2023-02-01T14:26:27;4.20;1.00
10453;DHT22;5274;51.992;8.518;2023-02-01T14:31:54;3.90;99.90
10453;DHT22;5274;51.992;8.518;2023-02-01T14:34:31;3.60;1.00
10453;DHT22;5274;51.992;8.518;2023-02-01T14:37:01;3.40;1.00
10453;DHT22;5274;51.992;8.518;2023-02-01T14:47:50;3.20;1.00
10453;DHT22;5274;51.992;8.518;2023-02-01T14:50:36;3.20;99.90
10453;DHT22;5274;51.992;8.518;2023-02-01T14:58:37;3.30;1.00
10453;DHT22;5274;51.992;8.518;2023-02-01T15:04:09;3.40;1.00
10453;DHT22;5274;51.992;8.518;2023-02-01T15:06:43;3.40;1.00
10453;DHT22;5274;51.992;8.518;2023-02-01T15:09:16;3.50;1.00
10453;DHT22;5274;51.992;8.518;2023-02-01T15:12:02;3.50;1.00
10453;DHT22;5274;51.992;8.518;2023-02-01T15:14:38;3.60;1.00
10453;DHT22;5274;51.992;8.518;2023-02-01T15:17:25;2.80;1.00
10453;DHT22;5274;51.992;8.518;2023-02-01T15:22:40;3.90;1.00
10453;DHT22;5274;51.992;8.518;2023-02-01T15:25:19;3.90;1.00
10453;DHT22;5274;51.992;8.518;2023-02-01T15:27:45;3.90;1.00
10453;DHT22;5274;51.992;8.518;2023-02-01T15:30:23;3.90;1.00
10453;DHT22;5274;51.992;8.518;2023-02-01T15:32:49;3.90;1.00
10453;DHT22;5274;51.992;8.518;2023-02-01T15:35:39;3.80;1.00
10453;DHT22;5274;51.992;8.518;2023-02-01T15:44:18;3.70;1.00
10453;DHT22;5274;51.992;8.518;2023-02-01T15:46:22;3.80;1.00
10453;DHT22;5274;51.992;8.518;2023-02-01T15:48:51;3.80;1.00
10453;DHT22;5274;51.992;8.518;2023-02-01T15:51:25;3.80;1.00
10453;DHT22;5274;51.992;8.518;2023-02-01T15:53:58;3.80;1.00
10453;DHT22;5274;51.992;8.518;2023-02-01T15:56:27;3.80;1.00
10453;DHT22;5274;51.992;8.518;2023-02-01T15:58:57;3.80;1.00
10453;DHT22;5274;51.992;8.518;2023-02-01T16:01:24;3.90;1.00
10453;DHT22;5274;51.992;8.518;2023-02-01T16:04:05;3.90;1.00
10453;DHT22;5274;51.992;8.518;2023-02-01T16:06:51;3.90;1.00
10453;DHT22;5274;51.992;8.518;2023-02-01T16:09:24;3.90;1.00
10453;DHT22;5274;51.992;8.518;2023-02-01T16:11:56;4.00;1.00
10453;DHT22;5274;51.992;8.518;2023-02-01T16:14:23;4.00;1.00
10453;DHT22;5274;51.992;8.518;2023-02-01T16:16:49;4.00;1.00
10453;DHT22;5274;51.992;8.518;2023-02-01T16:19:14;4.00;1.00
10453;DHT22;5274;51.992;8.518;2023-02-01T16:21:40;4.00;1.00
10453;DHT22;5274;51.992;8.518;2023-02-01T16:24:06;4.00;1.00
10453;DHT22;5274;51.992;8.518;2023-02-01T16:26:32;4.00;1.00
10453;DHT22;5274;51.992;8.518;2023-02-01T16:28:59;4.00;1.00
10453;DHT22;5274;51.992;8.518;2023-02-01T16:31:29;4.00;1.00
10453;DHT22;5274;51.992;8.518;2023-02-01T16:33:55;4.00;1.00
10453;DHT22;5274;51.992;8.518;2023-02-01T16:36:21;4.00;1.00
10453;DHT22;5274;51.992;8.518;2023-02-01T16:38:47;4.00;1.00
10453;DHT22;5274;51.992;8.518;2023-02-01T16:41:18;4.00;1.00
10453;DHT22;5274;51.992;8.518;2023-02-01T16:43:44;4.00;1.00
10453;DHT22;5274;51.992;8.518;2023-02-01T16:46:21;4.00;1.00
10453;DHT22;5274;51.992;8.518;2023-02-01T16:48:56;4.00;1.00
10453;DHT22;5274;51.992;8.518;2023-02-01T16:51:24;4.00;1.00
10453;DHT22;5274;51.992;8.518;2023-02-01T16:53:50;4.00;1.00
10453;DHT22;5274;51.992;8.518;2023-02-01T16:56:28;4.00;1.00
10453;DHT22;5274;51.992;8.518;2023-02-01T16:58:53;4.00;1.00
10453;DHT22;5274;51.992;8.518;2023-02-01T17:01:19;4.10;1.00
10453;DHT22;5274;51.992;8.518;2023-02-01T17:03:46;4.00;1.00
10453;DHT22;5274;51.992;8.518;2023-02-01T17:06:14;4.10;1.00
10453;DHT22;5274;51.992;8.518;2023-02-01T17:08:43;4.10;1.00
10453;DHT22;5274;51.992;8.518;2023-02-01T17:11:11;4.00;1.00
10453;DHT22;5274;51.992;8.518;2023-02-01T17:13:37;4.00;1.00
10453;DHT22;5274;51.992;8.518;2023-02-01T17:16:10;3.90;1.00
10453;DHT22;5274;51.992;8.518;2023-02-01T17:18:36;3.90;1.00
10453;DHT22;5274;51.992;8.518;2023-02-01T17:21:03;3.90;1.00
10453;DHT22;5274;51.992;8.518;2023-02-01T17:23:29;3.80;1.00
10453;DHT22;5274;51.992;8.518;2023-02-01T17:25:55;3.70;1.00
10453;DHT22;5274;51.992;8.518;2023-02-01T17:28:22;3.80;1.00
10453;DHT22;5274;51.992;8.518;2023-02-01T17:30:48;3.70;1.00
10453;DHT22;5274;51.992;8.518;2023-02-01T17:35:53;3.80;1.00
10453;DHT22;5274;51.992;8.518;2023-02-01T17:38:19;3.70;1.00
10453;DHT22;5274;51.992;8.518;2023-02-01T17:40:45;3.70;1.00
10453;DHT22;5274;51.992;8.518;2023-02-01T17:43:15;3.60;1.00
10453;DHT22;5274;51.992;8.518;2023-02-01T17:45:51;3.70;1.00
10453;DHT22;5274;51.992;8.518;2023-02-01T17:48:19;3.60;1.00
10453;DHT22;5274;51.992;8.518;2023-02-01T17:50:47;3.70;99.90
10453;DHT22;5274;51.992;8.518;2023-02-01T17:53:13;3.70;99.90
10453;DHT22;5274;51.992;8.518;2023-02-01T17:55:44;3.70;1.00
10453;DHT22;5274;51.992;8.518;2023-02-01T17:58:11;3.60;1.00
10453;DHT22;5274;51.992;8.518;2023-02-01T18:00:38;3.60;1.00
10453;DHT22;5274;51.992;8.518;2023-02-01T18:03:04;3.60;99.90
10453;DHT22;5274;51.992;8.518;2023-02-01T18:05:39;3.60;99.90
10453;DHT22;5274;51.992;8.518;2023-02-01T18:08:06;3.60;1.00
10453;DHT22;5274;51.992;8.518;2023-02-01T18:10:32;3.60;99.90
10453;DHT22;5274;51.992;8.518;2023-02-01T18:12:58;3.60;1.00
10453;DHT22;5274;51.992;8.518;2023-02-01T18:15:24;3.60;1.00
10453;DHT22;5274;51.992;8.518;2023-02-01T18:17:50;3.60;1.00
10453;DHT22;5274;51.992;8.518;2023-02-01T18:20:20;3.50;1.00
10453;DHT22;5274;51.992;8.518;2023-02-01T18:22:46;3.50;1.00
10453;DHT22;5274;51.992;8.518;2023-02-01T18:27:45;3.50;1.00
10453;DHT22;5274;51.992;8.518;2023-02-01T18:30:11;3.50;1.00
10453;DHT22;5274;51.992;8.518;2023-02-01T18:32:37;3.40;1.00
10453;DHT22;5274;51.992;8.518;2023-02-01T18:35:15;3.40;1.00
10453;DHT22;5274;51.992;8.518;2023-02-01T18:37:41;3.40;1.00
10453;DHT22;5274;51.992;8.518;2023-02-01T18:40:11;3.50;1.00
10453;DHT22;5274;51.992;8.518;2023-02-01T18:42:37;3.50;1.00
10453;DHT22;5274;51.992;8.518;2023-02-01T18:45:03;3.60;1.00
10453;DHT22;5274;51.992;8.518;2023-02-01T18:47:28;3.60;1.00
10453;DHT22;5274;51.992;8.518;2023-02-01T18:49:54;3.50;99.90
10453;DHT22;5274;51.992;8.518;2023-02-01T18:52:19;3.60;1.00
10453;DHT22;5274;51.992;8.518;2023-02-01T18:54:45;3.60;1.00